sensor_id;sensor_type;location;lat;lon;timestamp;P1;durP1;ratioP1;P2;durP2;ratioP2
55292;SDS011;41157;53.560;10.098;2023-06-01T00:00:44;20.03;;;6.83;;
55292;SDS011;41157;53.560;10.098;2023-06-01T00:03:11;14.10;;;7.27;;
55292;SDS011;41157;53.560;10.098;2023-06-01T00:05:39;12.20;;;7.57;;
55292;SDS011;41157;53.560;10.098;2023-06-01T00:08:06;11.47;;;7.03;;
55292;SDS011;41157;53.560;10.098;2023-06-01T00:10:33;16.23;;;7.80;;
55292;SDS011;41157;53.560;10.098;2023-06-01T00:13:00;19.80;;;7.57;;
55292;SDS011;41157;53.560;10.098;2023-06-01T00:15:28;13.17;;;6.57;;
55292;SDS011;41157;53.560;10.098;2023-06-01T00:17:55;10.70;;;6.20;;
55292;SDS011;41157;53.560;10.098;2023-06-01T00:20:22;18.03;;;6.63;;
55292;SDS011;41157;53.560;10.098;2023-06-01T00:22:49;12.40;;;5.73;;
55292;SDS011;41157;53.560;10.098;2023-06-01T00:25:16;19.77;;;6.60;;
55292;SDS011;41157;53.560;10.098;2023-06-01T00:27:43;11.37;;;5.70;;
55292;SDS011;41157;53.560;10.098;2023-06-01T00:30:11;15.27;;;5.73;;
55292;SDS011;41157;53.560;10.098;2023-06-01T00:32:39;11.50;;;5.53;;
55292;SDS011;41157;53.560;10.098;2023-06-01T00:35:06;12.33;;;5.37;;
55292;SDS011;41157;53.560;10.098;2023-06-01T00:37:34;11.93;;;5.33;;
55292;SDS011;41157;53.560;10.098;2023-06-01T00:40:01;12.97;;;5.57;;
55292;SDS011;41157;53.560;10.098;2023-06-01T00:42:28;11.20;;;5.53;;
55292;SDS011;41157;53.560;10.098;2023-06-01T00:44:55;9.23;;;5.03;;
55292;SDS011;41157;53.560;10.098;2023-06-01T00:47:23;11.40;;;5.63;;
55292;SDS011;41157;53.560;10.098;2023-06-01T00:49:52;12.30;;;5.10;;
55292;SDS011;41157;53.560;10.098;2023-06-01T00:52:19;10.13;;;4.87;;
55292;SDS011;41157;53.560;10.098;2023-06-01T00:54:47;11.70;;;5.37;;
55292;SDS011;41157;53.560;10.098;2023-06-01T00:57:14;13.07;;;6.37;;
55292;SDS011;41157;53.560;10.098;2023-06-01T00:59:41;13.03;;;6.47;;
55292;SDS011;41157;53.560;10.098;2023-06-01T01:02:08;17.70;;;6.80;;
55292;SDS011;41157;53.560;10.098;2023-06-01T01:04:38;16.83;;;6.40;;
55292;SDS011;41157;53.560;10.098;2023-06-01T01:07:09;13.87;;;7.17;;
55292;SDS011;41157;53.560;10.098;2023-06-01T01:09:47;13.03;;;7.53;;
55292;SDS011;41157;53.560;10.098;2023-06-01T01:12:17;12.30;;;7.17;;
55292;SDS011;41157;53.560;10.098;2023-06-01T01:14:50;16.43;;;7.73;;
55292;SDS011;41157;53.560;10.098;2023-06-01T01:17:21;16.77;;;6.80;;
55292;SDS011;41157;53.560;10.098;2023-06-01T01:19:53;13.23;;;6.93;;
55292;SDS011;41157;53.560;10.098;2023-06-01T01:25:28;11.23;;;5.57;;
55292;SDS011;41157;53.560;10.098;2023-06-01T01:28:06;13.30;;;5.30;;
55292;SDS011;41157;53.560;10.098;2023-06-01T01:30:37;11.43;;;5.60;;
55292;SDS011;41157;53.560;10.098;2023-06-01T01:33:05;12.13;;;5.50;;
55292;SDS011;41157;53.560;10.098;2023-06-01T01:35:33;9.90;;;5.40;;
55292;SDS011;41157;53.560;10.098;2023-06-01T01:38:00;13.27;;;5.77;;
55292;SDS011;41157;53.560;10.098;2023-06-01T01:40:27;16.23;;;5.60;;
55292;SDS011;41157;53.560;10.098;2023-06-01T01:42:54;14.27;;;5.43;;
55292;SDS011;41157;53.560;10.098;2023-06-01T01:45:22;10.03;;;4.70;;
55292;SDS011;41157;53.560;10.098;2023-06-01T01:47:54;10.17;;;5.20;;
55292;SDS011;41157;53.560;10.098;2023-06-01T01:50:24;12.70;;;5.30;;
55292;SDS011;41157;53.560;10.098;2023-06-01T01:52:53;6.83;;;4.70;;
55292;SDS011;41157;53.560;10.098;2023-06-01T01:55:20;14.33;;;4.93;;
55292;SDS011;41157;53.560;10.098;2023-06-01T01:57:48;8.80;;;4.60;;
55292;SDS011;41157;53.560;10.098;2023-06-01T02:00:17;11.13;;;5.13;;
55292;SDS011;41157;53.560;10.098;2023-06-01T02:02:44;17.30;;;5.80;;
55292;SDS011;41157;53.560;10.098;2023-06-01T02:05:12;12.47;;;5.60;;
55292;SDS011;41157;53.560;10.098;2023-06-01T02:07:39;14.23;;;5.00;;
55292;SDS011;41157;53.560;10.098;2023-06-01T02:10:07;11.60;;;5.47;;
55292;SDS011;41157;53.560;10.098;2023-06-01T02:12:34;8.53;;;5.20;;
55292;SDS011;41157;53.560;10.098;2023-06-01T02:15:01;13.03;;;6.17;;
55292;SDS011;41157;53.560;10.098;2023-06-01T02:17:28;13.80;;;5.97;;
55292;SDS011;41157;53.560;10.098;2023-06-01T02:19:55;13.83;;;6.50;;
55292;SDS011;41157;53.560;10.098;2023-06-01T02:22:23;18.57;;;5.93;;
55292;SDS011;41157;53.560;10.098;2023-06-01T02:24:50;12.93;;;5.47;;
55292;SDS011;41157;53.560;10.098;2023-06-01T02:27:17;9.00;;;6.20;;
55292;SDS011;41157;53.560;10.098;2023-06-01T02:29:44;16.20;;;6.53;;
55292;SDS011;41157;53.560;10.098;2023-06-01T02:32:11;11.53;;;5.43;;
55292;SDS011;41157;53.560;10.098;2023-06-01T02:34:38;11.23;;;5.87;;
55292;SDS011;41157;53.560;10.098;2023-06-01T02:37:06;13.80;;;5.17;;
55292;SDS011;41157;53.560;10.098;2023-06-01T02:39:34;11.20;;;5.20;;
55292;SDS011;41157;53.560;10.098;2023-06-01T02:42:01;11.93;;;4.93;;
55292;SDS011;41157;53.560;10.098;2023-06-01T02:44:28;11.07;;;4.60;;
55292;SDS011;41157;53.560;10.098;2023-06-01T02:46:55;12.37;;;4.87;;
55292;SDS011;41157;53.560;10.098;2023-06-01T02:49:22;8.67;;;4.63;;
55292;SDS011;41157;53.560;10.098;2023-06-01T02:51:49;14.67;;;4.73;;
55292;SDS011;41157;53.560;10.098;2023-06-01T02:54:16;16.13;;;5.37;;
55292;SDS011;41157;53.560;10.098;2023-06-01T02:56:44;10.50;;;4.40;;
55292;SDS011;41157;53.560;10.098;2023-06-01T02:59:12;11.83;;;4.80;;
55292;SDS011;41157;53.560;10.098;2023-06-01T03:01:39;14.27;;;4.97;;
55292;SDS011;41157;53.560;10.098;2023-06-01T03:04:06;12.83;;;4.83;;
55292;SDS011;41157;53.560;10.098;2023-06-01T03:06:33;12.67;;;4.83;;
55292;SDS011;41157;53.560;10.098;2023-06-01T03:09:02;11.27;;;4.40;;
55292;SDS011;41157;53.560;10.098;2023-06-01T03:11:30;11.97;;;4.90;;
55292;SDS011;41157;53.560;10.098;2023-06-01T03:13:58;11.03;;;5.27;;
55292;SDS011;41157;53.560;10.098;2023-06-01T03:16:25;14.87;;;5.90;;
55292;SDS011;41157;53.560;10.098;2023-06-01T03:18:52;16.13;;;5.03;;
55292;SDS011;41157;53.560;10.098;2023-06-01T03:21:20;14.33;;;5.87;;
55292;SDS011;41157;53.560;10.098;2023-06-01T03:23:47;10.30;;;5.20;;
55292;SDS011;41157;53.560;10.098;2023-06-01T03:26:14;13.70;;;5.63;;
55292;SDS011;41157;53.560;10.098;2023-06-01T03:28:43;13.67;;;5.40;;
55292;SDS011;41157;53.560;10.098;2023-06-01T03:31:12;9.43;;;5.00;;
55292;SDS011;41157;53.560;10.098;2023-06-01T03:33:39;15.83;;;5.27;;
55292;SDS011;41157;53.560;10.098;2023-06-01T03:36:06;15.67;;;5.20;;
55292;SDS011;41157;53.560;10.098;2023-06-01T03:38:33;11.10;;;4.33;;
55292;SDS011;41157;53.560;10.098;2023-06-01T03:41:00;10.60;;;4.40;;
55292;SDS011;41157;53.560;10.098;2023-06-01T03:43:27;10.60;;;4.07;;
55292;SDS011;41157;53.560;10.098;2023-06-01T03:45:55;13.33;;;4.87;;
55292;SDS011;41157;53.560;10.098;2023-06-01T03:48:23;16.30;;;4.37;;
55292;SDS011;41157;53.560;10.098;2023-06-01T03:50:50;14.10;;;4.27;;
55292;SDS011;41157;53.560;10.098;2023-06-01T03:53:18;12.73;;;4.17;;
55292;SDS011;41157;53.560;10.098;2023-06-01T03:55:45;11.13;;;4.50;;
55292;SDS011;41157;53.560;10.098;2023-06-01T03:58:13;12.83;;;4.53;;
55292;SDS011;41157;53.560;10.098;2023-06-01T04:00:40;11.60;;;5.60;;
55292;SDS011;41157;53.560;10.098;2023-06-01T04:03:08;11.17;;;5.60;;
55292;SDS011;41157;53.560;10.098;2023-06-01T04:05:37;15.27;;;5.60;;
55292;SDS011;41157;53.560;10.098;2023-06-01T04:08:04;10.03;;;5.20;;
55292;SDS011;41157;53.560;10.098;2023-06-01T04:10:31;15.70;;;5.17;;
55292;SDS011;41157;53.560;10.098;2023-06-01T04:12:58;14.53;;;5.63;;
55292;SDS011;41157;53.560;10.098;2023-06-01T04:15:25;14.70;;;5.30;;
55292;SDS011;41157;53.560;10.098;2023-06-01T04:17:52;14.83;;;5.43;;
55292;SDS011;41157;53.560;10.098;2023-06-01T04:20:19;9.97;;;4.57;;
55292;SDS011;41157;53.560;10.098;2023-06-01T04:22:48;14.33;;;5.67;;
55292;SDS011;41157;53.560;10.098;2023-06-01T04:25:15;12.27;;;4.57;;
55292;SDS011;41157;53.560;10.098;2023-06-01T04:27:43;18.17;;;5.10;;
55292;SDS011;41157;53.560;10.098;2023-06-01T04:30:11;15.13;;;4.23;;
55292;SDS011;41157;53.560;10.098;2023-06-01T04:32:38;14.80;;;4.40;;
55292;SDS011;41157;53.560;10.098;2023-06-01T04:35:07;11.23;;;4.13;;
55292;SDS011;41157;53.560;10.098;2023-06-01T04:37:35;12.77;;;4.73;;
55292;SDS011;41157;53.560;10.098;2023-06-01T04:40:05;10.63;;;4.10;;
55292;SDS011;41157;53.560;10.098;2023-06-01T04:42:33;8.33;;;4.03;;
55292;SDS011;41157;53.560;10.098;2023-06-01T04:45:00;11.50;;;4.10;;
55292;SDS011;41157;53.560;10.098;2023-06-01T04:47:29;10.03;;;4.17;;
55292;SDS011;41157;53.560;10.098;2023-06-01T04:49:56;8.40;;;3.53;;
55292;SDS011;41157;53.560;10.098;2023-06-01T04:52:23;13.77;;;4.57;;
55292;SDS011;41157;53.560;10.098;2023-06-01T04:54:51;10.57;;;3.80;;
55292;SDS011;41157;53.560;10.098;2023-06-01T04:57:19;8.27;;;4.00;;
55292;SDS011;41157;53.560;10.098;2023-06-01T04:59:48;12.40;;;4.87;;
55292;SDS011;41157;53.560;10.098;2023-06-01T05:02:16;9.17;;;4.07;;
55292;SDS011;41157;53.560;10.098;2023-06-01T05:04:43;16.30;;;4.70;;
55292;SDS011;41157;53.560;10.098;2023-06-01T05:07:10;18.27;;;4.60;;
55292;SDS011;41157;53.560;10.098;2023-06-01T05:09:37;9.73;;;3.70;;
55292;SDS011;41157;53.560;10.098;2023-06-01T05:12:05;18.23;;;4.43;;
55292;SDS011;41157;53.560;10.098;2023-06-01T05:14:34;19.27;;;3.67;;
55292;SDS011;41157;53.560;10.098;2023-06-01T05:17:01;10.60;;;4.03;;
55292;SDS011;41157;53.560;10.098;2023-06-01T05:19:28;10.73;;;3.23;;
55292;SDS011;41157;53.560;10.098;2023-06-01T05:21:55;10.03;;;3.97;;
55292;SDS011;41157;53.560;10.098;2023-06-01T05:24:22;10.93;;;3.87;;
55292;SDS011;41157;53.560;10.098;2023-06-01T05:26:49;11.27;;;3.57;;
55292;SDS011;41157;53.560;10.098;2023-06-01T05:29:16;12.47;;;3.90;;
55292;SDS011;41157;53.560;10.098;2023-06-01T05:31:45;11.97;;;3.80;;
55292;SDS011;41157;53.560;10.098;2023-06-01T05:34:12;12.87;;;4.13;;
55292;SDS011;41157;53.560;10.098;2023-06-01T05:36:39;12.80;;;4.30;;
55292;SDS011;41157;53.560;10.098;2023-06-01T05:39:06;15.10;;;4.47;;
55292;SDS011;41157;53.560;10.098;2023-06-01T05:41:34;11.80;;;4.00;;
55292;SDS011;41157;53.560;10.098;2023-06-01T05:44:01;11.30;;;3.93;;
55292;SDS011;41157;53.560;10.098;2023-06-01T05:46:28;13.10;;;3.60;;
55292;SDS011;41157;53.560;10.098;2023-06-01T05:48:56;9.93;;;3.80;;
55292;SDS011;41157;53.560;10.098;2023-06-01T05:51:23;17.77;;;4.00;;
55292;SDS011;41157;53.560;10.098;2023-06-01T05:53:50;11.23;;;3.73;;
55292;SDS011;41157;53.560;10.098;2023-06-01T05:56:17;12.07;;;4.07;;
55292;SDS011;41157;53.560;10.098;2023-06-01T05:58:44;17.13;;;4.37;;
55292;SDS011;41157;53.560;10.098;2023-06-01T06:01:15;9.77;;;4.20;;
55292;SDS011;41157;53.560;10.098;2023-06-01T06:03:43;8.67;;;3.60;;
55292;SDS011;41157;53.560;10.098;2023-06-01T06:06:12;10.97;;;3.67;;
55292;SDS011;41157;53.560;10.098;2023-06-01T06:08:39;10.63;;;3.90;;
55292;SDS011;41157;53.560;10.098;2023-06-01T06:11:06;11.80;;;3.20;;
55292;SDS011;41157;53.560;10.098;2023-06-01T06:13:33;9.47;;;3.30;;
55292;SDS011;41157;53.560;10.098;2023-06-01T06:16:00;8.93;;;3.43;;
55292;SDS011;41157;53.560;10.098;2023-06-01T06:18:27;11.27;;;3.50;;
55292;SDS011;41157;53.560;10.098;2023-06-01T06:20:54;13.30;;;3.70;;
55292;SDS011;41157;53.560;10.098;2023-06-01T06:23:22;13.27;;;3.73;;
55292;SDS011;41157;53.560;10.098;2023-06-01T06:25:49;10.73;;;3.80;;
55292;SDS011;41157;53.560;10.098;2023-06-01T06:28:19;10.30;;;3.00;;
55292;SDS011;41157;53.560;10.098;2023-06-01T06:30:46;7.37;;;3.30;;
55292;SDS011;41157;53.560;10.098;2023-06-01T06:33:13;12.60;;;3.63;;
55292;SDS011;41157;53.560;10.098;2023-06-01T06:35:40;18.93;;;3.33;;
55292;SDS011;41157;53.560;10.098;2023-06-01T06:38:09;15.97;;;3.80;;
55292;SDS011;41157;53.560;10.098;2023-06-01T06:40:37;6.60;;;3.67;;
55292;SDS011;41157;53.560;10.098;2023-06-01T06:43:05;15.67;;;3.60;;
55292;SDS011;41157;53.560;10.098;2023-06-01T06:45:32;11.83;;;3.67;;
55292;SDS011;41157;53.560;10.098;2023-06-01T06:47:59;7.53;;;3.53;;
55292;SDS011;41157;53.560;10.098;2023-06-01T06:50:26;10.37;;;3.77;;
55292;SDS011;41157;53.560;10.098;2023-06-01T06:55:34;12.03;;;3.70;;
55292;SDS011;41157;53.560;10.098;2023-06-01T06:58:03;14.00;;;3.80;;
55292;SDS011;41157;53.560;10.098;2023-06-01T07:00:30;10.47;;;3.70;;
55292;SDS011;41157;53.560;10.098;2023-06-01T07:02:57;7.97;;;3.47;;
55292;SDS011;41157;53.560;10.098;2023-06-01T07:05:25;17.53;;;3.53;;
55292;SDS011;41157;53.560;10.098;2023-06-01T07:07:52;8.93;;;3.37;;
55292;SDS011;41157;53.560;10.098;2023-06-01T07:10:19;9.60;;;3.33;;
55292;SDS011;41157;53.560;10.098;2023-06-01T07:12:46;14.03;;;3.73;;
55292;SDS011;41157;53.560;10.098;2023-06-01T07:15:14;15.00;;;3.13;;
55292;SDS011;41157;53.560;10.098;2023-06-01T07:17:42;10.17;;;3.13;;
55292;SDS011;41157;53.560;10.098;2023-06-01T07:20:09;9.90;;;3.33;;
55292;SDS011;41157;53.560;10.098;2023-06-01T07:22:36;12.40;;;3.03;;
55292;SDS011;41157;53.560;10.098;2023-06-01T07:25:04;9.13;;;3.37;;
55292;SDS011;41157;53.560;10.098;2023-06-01T07:27:31;9.07;;;3.13;;
55292;SDS011;41157;53.560;10.098;2023-06-01T07:30:00;9.43;;;3.43;;
55292;SDS011;41157;53.560;10.098;2023-06-01T07:32:28;12.63;;;3.33;;
55292;SDS011;41157;53.560;10.098;2023-06-01T07:34:55;10.13;;;3.13;;
55292;SDS011;41157;53.560;10.098;2023-06-01T07:37:24;11.27;;;3.07;;
55292;SDS011;41157;53.560;10.098;2023-06-01T07:39:52;9.27;;;2.70;;
55292;SDS011;41157;53.560;10.098;2023-06-01T07:42:19;9.40;;;2.87;;
55292;SDS011;41157;53.560;10.098;2023-06-01T07:44:46;17.50;;;2.93;;
55292;SDS011;41157;53.560;10.098;2023-06-01T07:47:13;13.40;;;3.00;;
55292;SDS011;41157;53.560;10.098;2023-06-01T07:49:42;11.13;;;2.93;;
55292;SDS011;41157;53.560;10.098;2023-06-01T07:52:09;13.40;;;3.43;;
55292;SDS011;41157;53.560;10.098;2023-06-01T07:54:36;11.33;;;3.30;;
55292;SDS011;41157;53.560;10.098;2023-06-01T07:57:03;8.30;;;2.97;;
55292;SDS011;41157;53.560;10.098;2023-06-01T07:59:31;12.47;;;3.07;;
55292;SDS011;41157;53.560;10.098;2023-06-01T08:01:58;8.57;;;2.90;;
55292;SDS011;41157;53.560;10.098;2023-06-01T08:04:25;14.17;;;3.17;;
55292;SDS011;41157;53.560;10.098;2023-06-01T08:06:59;10.67;;;3.13;;
55292;SDS011;41157;53.560;10.098;2023-06-01T08:09:28;12.73;;;2.80;;
55292;SDS011;41157;53.560;10.098;2023-06-01T08:11:56;9.57;;;2.90;;
55292;SDS011;41157;53.560;10.098;2023-06-01T08:14:23;6.40;;;2.90;;
55292;SDS011;41157;53.560;10.098;2023-06-01T08:16:50;11.97;;;3.47;;
55292;SDS011;41157;53.560;10.098;2023-06-01T08:19:17;10.87;;;2.80;;
55292;SDS011;41157;53.560;10.098;2023-06-01T08:21:44;10.13;;;3.03;;
55292;SDS011;41157;53.560;10.098;2023-06-01T08:24:13;7.67;;;2.40;;
55292;SDS011;41157;53.560;10.098;2023-06-01T08:26:41;11.60;;;3.87;;
55292;SDS011;41157;53.560;10.098;2023-06-01T08:29:08;9.47;;;3.23;;
55292;SDS011;41157;53.560;10.098;2023-06-01T08:31:36;10.53;;;2.90;;
55292;SDS011;41157;53.560;10.098;2023-06-01T08:34:03;11.70;;;3.43;;
55292;SDS011;41157;53.560;10.098;2023-06-01T08:36:30;11.20;;;3.77;;
55292;SDS011;41157;53.560;10.098;2023-06-01T08:38:57;6.33;;;2.87;;
55292;SDS011;41157;53.560;10.098;2023-06-01T08:41:31;10.37;;;3.13;;
55292;SDS011;41157;53.560;10.098;2023-06-01T08:44:02;12.97;;;3.27;;
55292;SDS011;41157;53.560;10.098;2023-06-01T08:46:30;7.83;;;2.90;;
55292;SDS011;41157;53.560;10.098;2023-06-01T08:48:58;8.00;;;3.07;;
55292;SDS011;41157;53.560;10.098;2023-06-01T08:51:25;9.80;;;3.07;;
55292;SDS011;41157;53.560;10.098;2023-06-01T08:53:54;8.80;;;2.90;;
55292;SDS011;41157;53.560;10.098;2023-06-01T08:56:23;9.97;;;3.10;;
55292;SDS011;41157;53.560;10.098;2023-06-01T08:58:51;8.37;;;2.80;;
55292;SDS011;41157;53.560;10.098;2023-06-01T09:01:19;7.13;;;2.73;;
55292;SDS011;41157;53.560;10.098;2023-06-01T09:03:48;8.70;;;2.87;;
55292;SDS011;41157;53.560;10.098;2023-06-01T09:06:15;10.43;;;2.93;;
55292;SDS011;41157;53.560;10.098;2023-06-01T09:08:43;12.63;;;2.70;;
55292;SDS011;41157;53.560;10.098;2023-06-01T09:11:10;10.73;;;3.10;;
55292;SDS011;41157;53.560;10.098;2023-06-01T09:13:38;10.93;;;3.00;;
55292;SDS011;41157;53.560;10.098;2023-06-01T09:16:07;10.40;;;3.00;;
55292;SDS011;41157;53.560;10.098;2023-06-01T09:18:34;9.70;;;2.67;;
55292;SDS011;41157;53.560;10.098;2023-06-01T09:21:10;6.67;;;2.60;;
55292;SDS011;41157;53.560;10.098;2023-06-01T09:23:37;9.83;;;2.53;;
55292;SDS011;41157;53.560;10.098;2023-06-01T09:26:06;10.50;;;3.00;;
55292;SDS011;41157;53.560;10.098;2023-06-01T09:28:52;7.15;;;2.80;;
55292;SDS011;41157;53.560;10.098;2023-06-01T09:31:36;9.77;;;3.07;;
55292;SDS011;41157;53.560;10.098;2023-06-01T09:34:04;10.90;;;2.67;;
55292;SDS011;41157;53.560;10.098;2023-06-01T09:36:31;8.87;;;2.93;;
55292;SDS011;41157;53.560;10.098;2023-06-01T09:38:59;13.10;;;3.45;;
55292;SDS011;41157;53.560;10.098;2023-06-01T09:41:26;9.68;;;2.63;;
55292;SDS011;41157;53.560;10.098;2023-06-01T09:43:56;7.82;;;2.65;;
55292;SDS011;41157;53.560;10.098;2023-06-01T09:46:23;11.25;;;2.65;;
55292;SDS011;41157;53.560;10.098;2023-06-01T09:48:57;8.98;;;2.83;;
55292;SDS011;41157;53.560;10.098;2023-06-01T09:51:31;6.95;;;2.35;;
55292;SDS011;41157;53.560;10.098;2023-06-01T09:53:58;11.55;;;2.92;;
55292;SDS011;41157;53.560;10.098;2023-06-01T09:56:25;13.73;;;3.25;;
55292;SDS011;41157;53.560;10.098;2023-06-01T09:58:56;10.55;;;2.95;;
55292;SDS011;41157;53.560;10.098;2023-06-01T10:01:23;12.32;;;3.17;;
55292;SDS011;41157;53.560;10.098;2023-06-01T10:03:50;13.88;;;3.22;;
55292;SDS011;41157;53.560;10.098;2023-06-01T10:06:19;12.30;;;2.97;;
55292;SDS011;41157;53.560;10.098;2023-06-01T10:08:47;10.57;;;3.03;;
55292;SDS011;41157;53.560;10.098;2023-06-01T10:11:16;7.88;;;2.80;;
55292;SDS011;41157;53.560;10.098;2023-06-01T10:13:43;10.48;;;2.97;;
55292;SDS011;41157;53.560;10.098;2023-06-01T10:16:10;10.70;;;2.45;;
55292;SDS011;41157;53.560;10.098;2023-06-01T10:18:38;10.57;;;3.28;;
55292;SDS011;41157;53.560;10.098;2023-06-01T10:21:05;12.65;;;3.10;;
55292;SDS011;41157;53.560;10.098;2023-06-01T10:23:35;12.23;;;3.25;;
55292;SDS011;41157;53.560;10.098;2023-06-01T10:26:05;11.20;;;3.00;;
55292;SDS011;41157;53.560;10.098;2023-06-01T10:28:34;9.93;;;3.00;;
55292;SDS011;41157;53.560;10.098;2023-06-01T10:33:51;13.68;;;3.22;;
55292;SDS011;41157;53.560;10.098;2023-06-01T10:36:19;9.50;;;3.30;;
55292;SDS011;41157;53.560;10.098;2023-06-01T10:38:47;15.88;;;3.40;;
55292;SDS011;41157;53.560;10.098;2023-06-01T10:41:30;7.75;;;3.08;;
55292;SDS011;41157;53.560;10.098;2023-06-01T10:43:57;11.43;;;3.10;;
55292;SDS011;41157;53.560;10.098;2023-06-01T10:46:37;10.43;;;2.95;;
55292;SDS011;41157;53.560;10.098;2023-06-01T10:49:06;9.75;;;3.22;;
55292;SDS011;41157;53.560;10.098;2023-06-01T10:51:33;9.00;;;3.10;;
55292;SDS011;41157;53.560;10.098;2023-06-01T10:56:48;11.77;;;2.88;;
55292;SDS011;41157;53.560;10.098;2023-06-01T10:59:35;10.00;;;2.60;;
55292;SDS011;41157;53.560;10.098;2023-06-01T11:02:03;7.75;;;2.10;;
55292;SDS011;41157;53.560;10.098;2023-06-01T11:04:37;8.68;;;2.80;;
55292;SDS011;41157;53.560;10.098;2023-06-01T11:09:52;7.25;;;2.30;;
55292;SDS011;41157;53.560;10.098;2023-06-01T11:12:20;8.02;;;2.72;;
55292;SDS011;41157;53.560;10.098;2023-06-01T11:17:30;9.95;;;2.63;;
55292;SDS011;41157;53.560;10.098;2023-06-01T11:19:58;9.07;;;2.63;;
55292;SDS011;41157;53.560;10.098;2023-06-01T11:22:36;9.10;;;2.60;;
55292;SDS011;41157;53.560;10.098;2023-06-01T11:25:06;11.38;;;2.78;;
55292;SDS011;41157;53.560;10.098;2023-06-01T11:27:35;9.13;;;2.70;;
55292;SDS011;41157;53.560;10.098;2023-06-01T11:30:03;10.10;;;2.72;;
55292;SDS011;41157;53.560;10.098;2023-06-01T11:32:30;11.10;;;2.85;;
55292;SDS011;41157;53.560;10.098;2023-06-01T11:35:14;13.68;;;2.63;;
55292;SDS011;41157;53.560;10.098;2023-06-01T11:40:24;9.55;;;2.38;;
55292;SDS011;41157;53.560;10.098;2023-06-01T11:42:53;8.93;;;2.58;;
55292;SDS011;41157;53.560;10.098;2023-06-01T11:45:20;7.18;;;2.38;;
55292;SDS011;41157;53.560;10.098;2023-06-01T11:47:47;9.45;;;3.03;;
55292;SDS011;41157;53.560;10.098;2023-06-01T11:50:20;12.65;;;2.20;;
55292;SDS011;41157;53.560;10.098;2023-06-01T11:52:49;7.88;;;2.50;;
55292;SDS011;41157;53.560;10.098;2023-06-01T11:55:16;8.50;;;2.35;;
55292;SDS011;41157;53.560;10.098;2023-06-01T11:57:44;7.30;;;2.35;;
55292;SDS011;41157;53.560;10.098;2023-06-01T12:00:12;11.77;;;2.22;;
55292;SDS011;41157;53.560;10.098;2023-06-01T12:02:40;11.68;;;2.45;;
55292;SDS011;41157;53.560;10.098;2023-06-01T12:05:08;10.10;;;2.55;;
55292;SDS011;41157;53.560;10.098;2023-06-01T12:07:42;7.13;;;2.33;;
55292;SDS011;41157;53.560;10.098;2023-06-01T12:10:10;9.43;;;2.13;;
55292;SDS011;41157;53.560;10.098;2023-06-01T12:12:39;4.05;;;2.00;;
55292;SDS011;41157;53.560;10.098;2023-06-01T12:15:08;9.82;;;2.72;;
55292;SDS011;41157;53.560;10.098;2023-06-01T12:17:49;8.05;;;2.55;;
55292;SDS011;41157;53.560;10.098;2023-06-01T12:20:26;7.07;;;2.22;;
55292;SDS011;41157;53.560;10.098;2023-06-01T12:22:53;9.07;;;2.38;;
55292;SDS011;41157;53.560;10.098;2023-06-01T12:25:21;6.53;;;1.92;;
55292;SDS011;41157;53.560;10.098;2023-06-01T12:27:59;4.82;;;1.65;;
55292;SDS011;41157;53.560;10.098;2023-06-01T12:30:26;7.05;;;2.22;;
55292;SDS011;41157;53.560;10.098;2023-06-01T12:32:54;6.72;;;2.10;;
55292;SDS011;41157;53.560;10.098;2023-06-01T12:35:21;10.10;;;2.38;;
55292;SDS011;41157;53.560;10.098;2023-06-01T12:38:01;4.30;;;2.08;;
55292;SDS011;41157;53.560;10.098;2023-06-01T12:40:29;8.02;;;2.30;;
55292;SDS011;41157;53.560;10.098;2023-06-01T12:42:56;5.43;;;2.00;;
55292;SDS011;41157;53.560;10.098;2023-06-01T12:45:23;13.32;;;1.73;;
55292;SDS011;41157;53.560;10.098;2023-06-01T12:47:50;8.52;;;2.47;;
55292;SDS011;41157;53.560;10.098;2023-06-01T12:50:19;7.30;;;2.60;;
55292;SDS011;41157;53.560;10.098;2023-06-01T12:52:46;5.30;;;1.92;;
55292;SDS011;41157;53.560;10.098;2023-06-01T12:55:13;11.10;;;2.28;;
55292;SDS011;41157;53.560;10.098;2023-06-01T12:57:40;8.75;;;2.22;;
55292;SDS011;41157;53.560;10.098;2023-06-01T13:00:08;10.65;;;2.50;;
55292;SDS011;41157;53.560;10.098;2023-06-01T13:02:36;9.82;;;2.15;;
55292;SDS011;41157;53.560;10.098;2023-06-01T13:05:04;12.43;;;2.40;;
55292;SDS011;41157;53.560;10.098;2023-06-01T13:07:33;9.80;;;2.10;;
55292;SDS011;41157;53.560;10.098;2023-06-01T13:10:00;6.60;;;2.05;;
55292;SDS011;41157;53.560;10.098;2023-06-01T13:12:27;14.02;;;2.20;;
55292;SDS011;41157;53.560;10.098;2023-06-01T13:14:54;8.18;;;1.95;;
55292;SDS011;41157;53.560;10.098;2023-06-01T13:17:22;6.97;;;2.00;;
55292;SDS011;41157;53.560;10.098;2023-06-01T13:19:49;10.30;;;2.50;;
55292;SDS011;41157;53.560;10.098;2023-06-01T13:22:17;8.48;;;2.03;;
55292;SDS011;41157;53.560;10.098;2023-06-01T13:24:46;8.35;;;2.55;;
55292;SDS011;41157;53.560;10.098;2023-06-01T13:27:13;5.72;;;1.95;;
55292;SDS011;41157;53.560;10.098;2023-06-01T13:29:40;11.85;;;2.22;;
55292;SDS011;41157;53.560;10.098;2023-06-01T13:32:08;9.52;;;2.03;;
55292;SDS011;41157;53.560;10.098;2023-06-01T13:34:35;8.27;;;2.10;;
55292;SDS011;41157;53.560;10.098;2023-06-01T13:37:02;8.00;;;1.98;;
55292;SDS011;41157;53.560;10.098;2023-06-01T13:39:29;10.90;;;2.72;;
55292;SDS011;41157;53.560;10.098;2023-06-01T13:41:58;6.47;;;2.20;;
55292;SDS011;41157;53.560;10.098;2023-06-01T13:44:25;6.20;;;2.10;;
55292;SDS011;41157;53.560;10.098;2023-06-01T13:46:53;12.88;;;2.80;;
55292;SDS011;41157;53.560;10.098;2023-06-01T13:49:20;14.18;;;2.10;;
55292;SDS011;41157;53.560;10.098;2023-06-01T13:51:47;9.82;;;2.47;;
55292;SDS011;41157;53.560;10.098;2023-06-01T13:54:15;8.73;;;2.45;;
55292;SDS011;41157;53.560;10.098;2023-06-01T13:56:42;18.52;;;2.67;;
55292;SDS011;41157;53.560;10.098;2023-06-01T13:59:12;11.73;;;2.67;;
55292;SDS011;41157;53.560;10.098;2023-06-01T14:01:39;6.65;;;2.15;;
55292;SDS011;41157;53.560;10.098;2023-06-01T14:04:06;9.07;;;2.55;;
55292;SDS011;41157;53.560;10.098;2023-06-01T14:06:33;6.15;;;2.20;;
55292;SDS011;41157;53.560;10.098;2023-06-01T14:09:03;14.30;;;2.50;;
55292;SDS011;41157;53.560;10.098;2023-06-01T14:11:30;12.90;;;2.20;;
55292;SDS011;41157;53.560;10.098;2023-06-01T14:13:58;8.82;;;2.50;;
55292;SDS011;41157;53.560;10.098;2023-06-01T14:16:26;11.15;;;2.40;;
55292;SDS011;41157;53.560;10.098;2023-06-01T14:18:53;10.52;;;2.65;;
55292;SDS011;41157;53.560;10.098;2023-06-01T14:21:20;15.20;;;2.60;;
55292;SDS011;41157;53.560;10.098;2023-06-01T14:23:47;10.95;;;2.63;;
55292;SDS011;41157;53.560;10.098;2023-06-01T14:26:14;8.10;;;2.08;;
55292;SDS011;41157;53.560;10.098;2023-06-01T14:28:41;7.25;;;2.53;;
55292;SDS011;41157;53.560;10.098;2023-06-01T14:31:08;14.23;;;2.00;;
55292;SDS011;41157;53.560;10.098;2023-06-01T14:33:37;13.75;;;3.10;;
55292;SDS011;41157;53.560;10.098;2023-06-01T14:36:05;6.60;;;2.33;;
55292;SDS011;41157;53.560;10.098;2023-06-01T14:38:32;9.25;;;2.30;;
55292;SDS011;41157;53.560;10.098;2023-06-01T14:40:59;8.88;;;2.13;;
55292;SDS011;41157;53.560;10.098;2023-06-01T14:43:26;14.18;;;2.25;;
55292;SDS011;41157;53.560;10.098;2023-06-01T14:45:54;7.15;;;1.98;;
55292;SDS011;41157;53.560;10.098;2023-06-01T14:48:22;13.80;;;2.97;;
55292;SDS011;41157;53.560;10.098;2023-06-01T14:50:50;9.57;;;2.28;;